Terminal Aerodrome Forecast
Issued by NWS

Current Version | Previous Version | Graphics & Text | Print | Product List | Glossary On
Versions: 1 2 3 4 5 6 7 8 9 10 11 12 13 14 15 16 17 18 19 20
000
FTUS41 KILN 210500
TAFLUK
TAF
KLUK 210534Z 2106/2206 00000KT 5SM BR OVC025
     FM210800 00000KT 4SM BR FEW022
      TEMPO 2109/2113 2SM BR
     FM211400 10004KT P6SM FEW022 SCT250=

USA.gov is the U.S. government's official web portal to all federal, state and local government web resources and services.